Time,TemperatureF,DewpointF,PressureIn,WindDirection,WindDirectionDegrees,WindSpeedMPH,WindSpeedGustMPH,Humidity,HourlyPrecipIn,Conditions,Clouds,dailyrainin,SoftwareType,DateUTC
2013-01-03 00:13:00,17.1,12.8,30.06,SW,235,0.0,1.2,83,0.00,,OVC050,0.00,VWS V14.01,2013-01-03 06:13:00,
2013-01-03 00:28:00,17.1,12.8,30.05,SW,235,0.0,1.2,83,0.00,,OVC048,0.00,VWS V14.01,2013-01-03 06:28:00,
2013-01-03 00:43:00,18.6,14.0,30.04,SW,235,0.0,1.2,82,0.00,,OVC048,0.00,VWS V14.01,2013-01-03 06:43:00,
2013-01-03 00:58:00,18.8,14.5,30.04,SW,235,0.0,1.2,83,0.00,,OVC048,0.00,VWS V14.01,2013-01-03 06:58:00,
2013-01-03 01:13:00,18.9,14.6,30.05,SW,235,0.0,1.2,83,0.00,,OVC048,0.00,VWS V14.01,2013-01-03 07:13:00,
2013-01-03 01:28:00,19.0,14.7,30.05,SW,235,0.0,2.5,83,0.00,,OVC048,0.00,VWS V14.01,2013-01-03 07:28:00,
2013-01-03 01:43:00,19.0,14.7,30.04,SW,235,0.0,1.2,83,0.00,,OVC048,0.00,VWS V14.01,2013-01-03 07:43:00,
2013-01-03 01:58:00,19.1,15.1,30.05,SW,235,0.0,1.2,84,0.00,,,0.00,VWS V14.01,2013-01-03 07:58:00,
2013-01-03 02:13:00,19.1,15.1,30.05,SW,235,0.0,0.0,84,0.00,,OVC050,0.00,VWS V14.01,2013-01-03 08:13:00,
2013-01-03 02:28:00,19.1,15.1,30.05,SSW,207,0.0,2.5,84,0.00,,OVC050,0.00,VWS V14.01,2013-01-03 08:28:00,
2013-01-03 02:43:00,19.1,15.1,30.05,SSW,207,0.0,1.2,84,0.00,,OVC050,0.00,VWS V14.01,2013-01-03 08:43:00,
2013-01-03 02:58:00,19.1,15.1,30.05,SSW,207,0.0,0.0,84,0.00,,OVC050,0.00,VWS V14.01,2013-01-03 08:58:00,
2013-01-03 03:13:00,19.1,15.1,30.04,SSW,207,0.0,0.0,84,0.00,,OVC050,0.00,VWS V14.01,2013-01-03 09:13:00,
2013-01-03 03:28:00,19.1,14.8,30.04,SSW,207,0.0,0.0,83,0.00,,OVC050,0.00,VWS V14.01,2013-01-03 09:28:00,
2013-01-03 03:43:00,19.1,14.8,30.03,SW,230,0.0,1.2,83,0.00,,OVC050,0.00,VWS V14.01,2013-01-03 09:43:00,
2013-01-03 03:58:00,19.1,15.1,30.03,SW,229,0.0,2.5,84,0.00,,OVC050,0.00,VWS V14.01,2013-01-03 09:58:00,
2013-01-03 04:13:00,19.0,15.0,30.04,WSW,244,1.2,5.0,84,0.00,,OVC048,0.00,VWS V14.01,2013-01-03 10:13:00,
2013-01-03 04:28:00,19.0,15.0,30.04,WNW,302,2.5,5.0,84,0.00,,OVC048,0.00,VWS V14.01,2013-01-03 10:28:00,
2013-01-03 04:43:00,18.9,14.9,30.05,SW,225,5.0,6.2,84,0.00,,OVC048,0.00,VWS V14.01,2013-01-03 10:43:00,
2013-01-03 04:58:00,18.8,14.8,30.05,East,86,1.2,5.0,84,0.00,,OVC048,0.00,VWS V14.01,2013-01-03 10:58:00,
2013-01-03 05:13:00,18.8,14.8,30.07,WSW,249,2.5,7.5,84,0.00,,OVC044,0.00,VWS V14.01,2013-01-03 11:13:00,
2013-01-03 05:28:00,18.8,14.8,30.07,West,275,5.0,12.5,84,0.00,,OVC044,0.00,VWS V14.01,2013-01-03 11:28:00,
2013-01-03 05:43:00,18.8,14.5,30.07,WNW,302,5.0,11.2,83,0.00,,OVC044,0.00,VWS V14.01,2013-01-03 11:43:00,
2013-01-03 05:58:00,18.7,14.4,30.08,NW,308,0.0,7.5,83,0.00,,OVC046,0.00,VWS V14.01,2013-01-03 11:58:00,
2013-01-03 06:13:00,18.6,14.3,30.09,WSW,257,0.0,7.5,83,0.00,,OVC048,0.00,VWS V14.01,2013-01-03 12:13:00,
2013-01-03 06:28:00,18.5,14.2,30.09,West,265,0.0,8.8,83,0.00,,OVC048,0.00,VWS V14.01,2013-01-03 12:28:00,
2013-01-03 06:43:00,18.5,14.2,30.08,SW,229,0.0,5.0,83,0.00,,OVC048,0.00,VWS V14.01,2013-01-03 12:43:00,
2013-01-03 06:58:00,18.4,14.1,30.09,WSW,254,0.0,5.0,83,0.00,,OVC050,0.00,VWS V14.01,2013-01-03 12:58:00,
2013-01-03 07:13:00,18.3,14.0,30.10,WNW,287,0.0,5.0,83,0.00,,OVC050,0.00,VWS V14.01,2013-01-03 13:13:00,
2013-01-03 07:28:00,18.2,14.2,30.10,SSE,150,0.0,8.8,84,0.00,,OVC050,0.00,VWS V14.01,2013-01-03 13:28:00,
2013-01-03 07:43:00,18.2,14.2,30.11,WNW,289,0.0,6.2,84,0.00,,OVC050,0.00,VWS V14.01,2013-01-03 13:43:00,
2013-01-03 07:58:00,18.2,14.2,30.11,North,349,0.0,8.8,84,0.00,,OVC050,0.00,VWS V14.01,2013-01-03 13:58:00,
2013-01-03 08:13:00,18.3,14.6,30.12,WSW,256,0.0,3.8,85,0.00,,,0.00,VWS V14.01,2013-01-03 14:13:00,
2013-01-03 08:28:00,18.4,14.6,30.11,North,5,0.0,6.2,85,0.00,,,0.00,VWS V14.01,2013-01-03 14:28:00,
2013-01-03 08:43:00,18.6,14.9,30.12,SW,217,2.5,8.8,85,0.00,,,0.00,VWS V14.01,2013-01-03 14:43:00,
2013-01-03 08:58:00,18.9,15.1,30.14,SW,217,2.5,2.5,85,0.00,,,0.00,VWS V14.01,2013-01-03 14:58:00,
2013-01-03 09:13:00,19.1,15.3,30.14,SSW,194,1.2,7.5,85,0.00,,,0.00,VWS V14.01,2013-01-03 15:13:00,
2013-01-03 09:28:00,19.4,15.6,30.14,WNW,294,0.0,5.0,85,0.00,,,0.00,VWS V14.01,2013-01-03 15:28:00,
2013-01-03 09:43:00,19.7,15.9,30.15,SW,230,1.2,8.8,85,0.00,,,0.00,VWS V14.01,2013-01-03 15:43:00,
2013-01-03 09:58:00,20.2,16.4,30.16,SSW,212,0.0,6.2,85,0.00,,,0.00,VWS V14.01,2013-01-03 15:58:00,
2013-01-03 10:13:00,20.4,16.6,30.16,South,188,1.2,7.5,85,0.00,,,0.00,VWS V14.01,2013-01-03 16:13:00,
2013-01-03 10:28:00,20.9,16.8,30.16,West,270,3.8,11.2,84,0.00,,,0.00,VWS V14.01,2013-01-03 16:28:00,
2013-01-03 10:43:00,21.4,17.3,30.16,West,269,0.0,8.8,84,0.00,,,0.00,VWS V14.01,2013-01-03 16:43:00,
2013-01-03 10:58:00,21.7,17.6,30.16,NNE,19,1.2,6.2,84,0.00,,,0.00,VWS V14.01,2013-01-03 16:58:00,
2013-01-03 11:13:00,22.2,17.8,30.16,NNW,336,1.2,10.0,83,0.00,,,0.00,VWS V14.01,2013-01-03 17:13:00,
2013-01-03 11:28:00,22.7,18.3,30.16,North,350,0.0,8.8,83,0.00,,,0.00,VWS V14.01,2013-01-03 17:28:00,
2013-01-03 11:43:00,23.0,18.3,30.15,SSW,213,3.8,8.8,82,0.00,,,0.00,VWS V14.01,2013-01-03 17:43:00,
2013-01-03 11:58:00,23.5,19.1,30.14,North,349,0.0,11.2,83,0.00,,,0.00,VWS V14.01,2013-01-03 17:58:00,
2013-01-03 12:13:00,23.9,18.9,30.14,NW,304,3.8,12.5,81,0.00,,,0.00,VWS V14.01,2013-01-03 18:13:00,
2013-01-03 12:28:00,23.9,18.9,30.14,NE,52,1.2,13.8,81,0.00,,,0.00,VWS V14.01,2013-01-03 18:28:00,
2013-01-03 12:43:00,23.6,18.6,30.14,NNW,330,5.0,16.2,81,0.00,,,0.00,VWS V14.01,2013-01-03 18:43:00,
2013-01-03 12:58:00,23.6,18.9,30.14,WNW,300,3.8,11.2,82,0.00,,,0.00,VWS V14.01,2013-01-03 18:58:00,
2013-01-03 13:13:00,23.6,18.9,30.14,NW,314,7.5,16.2,82,0.00,,,0.00,VWS V14.01,2013-01-03 19:13:00,
2013-01-03 13:58:00,23.2,18.8,30.15,SSW,212,0.0,18.8,83,0.00,,OVC017,0.00,VWS V14.01,2013-01-03 19:58:00,
2013-01-03 14:13:00,23.2,19.1,30.15,WSW,247,0.0,7.5,84,0.00,,,0.00,VWS V14.01,2013-01-03 20:13:00,
2013-01-03 14:28:00,23.3,19.2,30.16,South,185,0.0,13.8,84,0.00,,,0.00,VWS V14.01,2013-01-03 20:28:00,
2013-01-03 14:43:00,23.1,18.7,30.16,NNW,331,5.0,12.5,83,0.00,,,0.00,VWS V14.01,2013-01-03 20:43:00,
2013-01-03 14:58:00,23.1,18.7,30.16,SSE,156,3.8,13.8,83,0.00,,OVC017,0.00,VWS V14.01,2013-01-03 20:58:00,
2013-01-03 15:13:00,23.1,18.4,30.16,South,183,0.0,7.5,82,0.00,,OVC017,0.00,VWS V14.01,2013-01-03 21:13:00,
2013-01-03 15:28:00,23.2,18.8,30.16,South,170,0.0,7.5,83,0.00,,OVC017,0.00,VWS V14.01,2013-01-03 21:28:00,
2013-01-03 15:43:00,23.3,18.9,30.16,South,178,0.0,6.2,83,0.00,,OVC017,0.00,VWS V14.01,2013-01-03 21:43:00,
2013-01-03 15:58:00,23.2,18.5,30.16,ESE,109,2.5,12.5,82,0.00,,OVC017,0.00,VWS V14.01,2013-01-03 21:58:00,
2013-01-03 16:13:00,22.8,18.1,30.16,WSW,253,0.0,13.8,82,0.00,,OVC019,0.00,VWS V14.01,2013-01-03 22:13:00,
2013-01-03 16:28:00,22.3,17.6,30.17,WSW,252,0.0,12.5,82,0.00,,OVC019,0.00,VWS V14.01,2013-01-03 22:28:00,
2013-01-03 16:43:00,21.9,17.5,30.17,WSW,246,1.2,11.2,83,0.00,,OVC019,0.00,VWS V14.01,2013-01-03 22:43:00,
2013-01-03 16:58:00,21.7,17.6,30.18,NW,319,0.0,11.2,84,0.00,,OVC019,0.00,VWS V14.01,2013-01-03 22:58:00,
2013-01-03 17:13:00,21.5,17.4,30.18,SSE,166,0.0,5.0,84,0.00,,OVC019,0.00,VWS V14.01,2013-01-03 23:13:00,
2013-01-03 17:28:00,21.3,17.2,30.18,West,267,1.2,10.0,84,0.00,,OVC019,0.00,VWS V14.01,2013-01-03 23:28:00,
2013-01-03 17:43:00,21.1,17.3,30.17,SSW,209,2.5,5.0,85,0.00,,OVC019,0.00,VWS V14.01,2013-01-03 23:43:00,
2013-01-03 17:58:00,20.9,16.8,30.18,SSE,151,2.5,7.5,84,0.00,,OVC017,0.00,VWS V14.01,2013-01-03 23:58:00,
2013-01-03 18:13:00,20.3,16.0,30.18,West,277,5.0,15.0,83,0.00,,OVC017,0.00,VWS V14.01,2013-01-04 00:13:00,
2013-01-03 18:28:00,19.9,15.9,30.18,SSW,192,0.0,6.2,84,0.00,,OVC017,0.00,VWS V14.01,2013-01-04 00:28:00,
2013-01-03 18:43:00,19.7,15.7,30.18,SSW,213,1.2,13.8,84,0.00,,OVC017,0.00,VWS V14.01,2013-01-04 00:43:00,
2013-01-03 18:58:00,19.4,15.4,30.18,South,176,1.2,11.2,84,0.00,,OVC017,0.00,VWS V14.01,2013-01-04 00:58:00,
2013-01-03 19:13:00,19.2,15.2,30.17,SSW,207,0.0,3.8,84,0.00,,OVC017,0.00,VWS V14.01,2013-01-04 01:13:00,
2013-01-03 19:28:00,19.0,15.0,30.17,North,5,0.0,5.0,84,0.00,,OVC017,0.00,VWS V14.01,2013-01-04 01:28:00,
2013-01-03 19:45:00,18.8,14.8,30.17,South,180,1.2,7.5,84,0.00,,CLR,0.00,VWS V14.01,2013-01-04 01:45:00,
2013-01-03 20:00:00,18.3,14.0,30.17,South,180,1.2,13.8,83,0.00,,CLR,0.00,VWS V14.01,2013-01-04 02:00:00,
2013-01-03 20:15:00,17.7,13.4,30.16,South,180,1.2,8.8,83,0.00,,CLR,0.00,VWS V14.01,2013-01-04 02:15:00,
2013-01-03 20:30:00,17.0,13.0,30.16,South,180,1.2,5.0,84,0.00,,CLR,0.00,VWS V14.01,2013-01-04 02:30:00,
2013-01-03 20:45:00,16.2,12.2,30.16,South,180,1.2,5.0,84,0.00,,CLR,0.00,VWS V14.01,2013-01-04 02:45:00,
2013-01-03 21:00:00,15.6,11.6,30.15,SSW,202,1.2,5.0,84,0.00,,CLR,0.00,VWS V14.01,2013-01-04 03:00:00,
2013-01-03 21:15:00,15.0,11.1,30.15,SSW,202,1.2,8.8,84,0.00,,CLR,0.00,VWS V14.01,2013-01-04 03:15:00,
2013-01-03 21:30:00,14.4,10.5,30.15,SSW,202,1.2,6.2,84,0.00,,CLR,0.00,VWS V14.01,2013-01-04 03:30:00,
2013-01-03 21:45:00,14.0,10.1,30.15,South,180,2.5,8.8,84,0.00,,CLR,0.00,VWS V14.01,2013-01-04 03:45:00,
2013-01-03 22:00:00,13.6,9.4,30.14,South,180,2.5,7.5,83,0.00,,CLR,0.00,VWS V14.01,2013-01-04 04:00:00,
2013-01-03 22:15:00,13.2,9.0,30.14,SSW,202,1.2,6.2,83,0.00,,CLR,0.00,VWS V14.01,2013-01-04 04:15:00,
2013-01-03 22:30:00,12.7,8.5,30.14,SSW,202,1.2,5.0,83,0.00,,CLR,0.00,VWS V14.01,2013-01-04 04:30:00,
2013-01-03 22:45:00,12.4,8.0,30.14,South,180,1.2,6.2,82,0.00,,CLR,0.00,VWS V14.01,2013-01-04 04:45:00,
2013-01-03 23:00:00,12.1,7.4,30.14,South,180,1.2,6.2,81,0.00,,CLR,0.00,VWS V14.01,2013-01-04 05:00:00,
2013-01-03 23:15:00,11.7,6.7,30.14,South,180,1.2,6.2,80,0.00,,CLR,0.00,VWS V14.01,2013-01-04 05:15:00,
2013-01-03 23:30:00,11.4,6.7,30.13,South,180,2.5,7.5,81,0.00,,CLR,0.00,VWS V14.01,2013-01-04 05:30:00,
2013-01-03 23:45:00,11.0,6.6,30.11,South,180,1.2,6.2,82,0.00,,CLR,0.00,VWS V14.01,2013-01-04 05:45:00,